Tilleda, Wisconsin
Current Conditions -  °F | °C
As of 8:15 PM on Sunday 21 Dec 2014 (Local Time) from KCLI Reporting Station
Overcast Overcast  
Wind Chill: 25°   Ceiling: 1400
Heat Index: 34°   Visibility: 7mi
Dew Point: 32°   Wind: 13mph
Humidity: 93%   Direction: 170°S
Pressure: 29.94"   Gusts: 17mph
Location:  44.82°N, 88.91°W
Report Text: KCLI 220215Z AUTO 17011G15KT 7SM OVC014 01/00 A2994 RMK AO2
Loading
Personal Weather Stations






























Interactive Weather Map New forecast layout! Learn more

10-Day Weather Forecast

Advertisements
Track Severe Weather on mobile